Time;durP1;ratioP1;P1;durP2;ratioP2;P2;SDS_P1;SDS_P2;PMS_P1;PMS_P2;Temp;Humidity;BMP_temperature;BMP_pressure;BME280_temperature;BME280_humidity;BME280_pressure;Samples;Min_cycle;Max_cycle;Signal;HPM_P1;HPM_P2
2023/12/22 00:01:16;;;;;;;2.50;0.83;;;;;;;;;;4998598;28;20542;-82
2023/12/22 00:03:42;;;;;;;3.45;1.10;;;;;;;;;;4998355;28;20414;-82
2023/12/22 00:06:08;;;;;;;4.85;1.13;;;;;;;;;;4997914;28;20627;-81
2023/12/22 00:08:34;;;;;;;5.72;1.25;;;;;;;;;;4997429;28;20202;-82
2023/12/22 00:11:00;;;;;;;4.10;1.60;;;;;;;;;;4997916;28;20177;-82
2023/12/22 00:13:26;;;;;;;3.08;1.17;;;;;;;;;;4998201;28;20406;-82
2023/12/22 00:15:52;;;;;;;2.77;0.93;;;;;;;;;;4998191;28;20533;-81
2023/12/22 00:18:18;;;;;;;4.00;1.70;;;;;;;;;;4998326;28;20458;-82
2023/12/22 00:20:44;;;;;;;5.95;1.33;;;;;;;;;;4997624;28;20493;-81
2023/12/22 00:23:10;;;;;;;2.85;0.90;;;;;;;;;;4997631;28;20625;-82
2023/12/22 00:25:36;;;;;;;4.67;1.30;;;;;;;;;;4997679;28;20186;-82
2023/12/22 00:28:02;;;;;;;2.40;1.00;;;;;;;;;;4997165;28;20409;-83
2023/12/22 00:30:28;;;;;;;8.13;1.65;;;;;;;;;;4998126;28;20415;-82
2023/12/22 00:32:54;;;;;;;4.07;1.23;;;;;;;;;;4998246;28;20184;-82
2023/12/22 00:35:20;;;;;;;8.53;1.17;;;;;;;;;;4997996;28;20438;-82
2023/12/22 00:37:46;;;;;;;2.45;1.02;;;;;;;;;;4997546;28;20403;-82
2023/12/22 00:40:12;;;;;;;3.30;2.17;;;;;;;;;;4997133;28;20273;-82
2023/12/22 00:42:38;;;;;;;4.97;1.52;;;;;;;;;;4997818;28;20755;-82
2023/12/22 00:45:04;;;;;;;5.60;1.90;;;;;;;;;;4997338;28;20273;-82
2023/12/22 00:47:30;;;;;;;3.38;1.40;;;;;;;;;;4997578;28;20410;-82
2023/12/22 00:49:56;;;;;;;3.20;1.88;;;;;;;;;;4997228;28;20280;-82
2023/12/22 00:52:23;;;;;;;6.05;1.42;;;;;;;;;;5001354;28;20181;-82
2023/12/22 00:54:49;;;;;;;8.05;1.00;;;;;;;;;;5001449;28;20179;-82
2023/12/22 00:57:15;;;;;;;5.35;1.63;;;;;;;;;;5001384;28;20186;-82
2023/12/22 00:59:47;;;;;;;5.65;1.33;;;;;;;;;;5001102;28;20242;-82
2023/12/22 01:02:14;;;;;;;2.70;1.55;;;;;;;;;;5000792;28;20186;-83
2023/12/22 01:04:40;;;;;;;6.78;1.67;;;;;;;;;;5000811;28;20190;-81
2023/12/22 01:07:08;;;;;;;6.55;1.40;;;;;;;;;;5000728;28;20191;-83
2023/12/22 01:09:34;;;;;;;6.25;1.63;;;;;;;;;;5001038;28;20234;-82
2023/12/22 01:12:02;;;;;;;10.30;1.92;;;;;;;;;;5000514;28;20176;-84
2023/12/22 01:14:28;;;;;;;4.93;1.58;;;;;;;;;;4999418;28;20180;-83
2023/12/22 01:16:55;;;;;;;8.02;2.10;;;;;;;;;;5000139;28;20182;-83
2023/12/22 01:19:21;;;;;;;6.95;1.90;;;;;;;;;;5000315;28;20171;-84
2023/12/22 01:21:47;;;;;;;5.18;2.13;;;;;;;;;;5000474;28;20215;-83
2023/12/22 01:24:13;;;;;;;8.73;2.00;;;;;;;;;;5000248;28;20196;-83
2023/12/22 01:26:39;;;;;;;8.90;2.20;;;;;;;;;;5000152;28;20190;-83
2023/12/22 01:29:05;;;;;;;8.50;1.90;;;;;;;;;;4999790;28;20175;-83
2023/12/22 01:31:31;;;;;;;7.72;2.25;;;;;;;;;;5000444;28;20407;-83
2023/12/22 01:33:57;;;;;;;14.00;2.87;;;;;;;;;;5000229;28;20209;-83
2023/12/22 01:36:23;;;;;;;7.20;2.33;;;;;;;;;;5000260;28;20518;-82
2023/12/22 01:38:48;;;;;;;5.50;2.10;;;;;;;;;;5000249;28;20775;-82
2023/12/22 01:41:15;;;;;;;6.20;1.70;;;;;;;;;;5000249;28;20571;-82
2023/12/22 01:43:41;;;;;;;12.40;3.22;;;;;;;;;;5000690;28;20518;-82
2023/12/22 01:46:08;;;;;;;8.63;1.98;;;;;;;;;;5000343;28;20266;-82
2023/12/22 01:48:34;;;;;;;10.52;1.85;;;;;;;;;;5000422;28;20176;-82
2023/12/22 01:51:01;;;;;;;14.25;3.45;;;;;;;;;;5001396;28;20188;-82
2023/12/22 01:53:28;;;;;;;11.13;3.13;;;;;;;;;;5000614;28;20632;-81
2023/12/22 01:55:55;;;;;;;9.55;2.30;;;;;;;;;;5001097;28;20176;-81
2023/12/22 01:58:22;;;;;;;9.93;2.65;;;;;;;;;;5000905;28;20509;-81
2023/12/22 02:00:48;;;;;;;6.80;2.38;;;;;;;;;;4999943;28;20195;-81
2023/12/22 02:03:15;;;;;;;15.80;2.37;;;;;;;;;;4998524;28;20198;-82
2023/12/22 02:05:47;;;;;;;10.55;2.25;;;;;;;;;;4999998;28;20415;-82
2023/12/22 02:08:13;;;;;;;16.40;1.95;;;;;;;;;;5000051;28;20184;-81
2023/12/22 02:10:39;;;;;;;10.55;2.70;;;;;;;;;;4999426;28;20601;-82
2023/12/22 02:13:05;;;;;;;11.90;2.42;;;;;;;;;;4999695;28;20186;-82
2023/12/22 02:15:32;;;;;;;11.93;2.03;;;;;;;;;;5000156;28;20643;-82
2023/12/22 02:18:03;;;;;;;8.98;2.63;;;;;;;;;;5000823;28;20184;-81
2023/12/22 02:20:30;;;;;;;16.65;2.78;;;;;;;;;;5000332;28;20234;-81
2023/12/22 02:22:56;;;;;;;6.88;2.58;;;;;;;;;;5000221;28;20243;-81
2023/12/22 02:25:22;;;;;;;9.13;2.90;;;;;;;;;;4999939;28;20211;-81
2023/12/22 02:27:54;;;;;;;10.27;2.20;;;;;;;;;;5000331;28;20414;-81
2023/12/22 02:30:25;;;;;;;18.27;3.30;;;;;;;;;;5000113;28;20420;-81
2023/12/22 02:32:53;;;;;;;10.80;2.20;;;;;;;;;;5000180;28;20160;-81
2023/12/22 02:35:20;;;;;;;14.55;3.25;;;;;;;;;;4999829;28;20575;-82
2023/12/22 02:37:47;;;;;;;18.75;3.30;;;;;;;;;;5000227;28;20179;-81
2023/12/22 02:40:14;;;;;;;8.60;2.45;;;;;;;;;;5000065;28;20200;-81
2023/12/22 02:42:40;;;;;;;10.43;2.60;;;;;;;;;;4999479;28;20284;-81
2023/12/22 02:45:06;;;;;;;10.10;3.60;;;;;;;;;;4999820;28;20171;-81
2023/12/22 02:47:33;;;;;;;8.45;2.40;;;;;;;;;;4999546;28;20229;-81
2023/12/22 02:49:59;;;;;;;20.60;3.33;;;;;;;;;;5000004;28;20222;-81
2023/12/22 02:52:25;;;;;;;8.57;2.50;;;;;;;;;;4999864;28;20268;-81
2023/12/22 02:54:51;;;;;;;13.18;3.33;;;;;;;;;;4999155;28;20183;-81
2023/12/22 02:57:17;;;;;;;10.00;2.93;;;;;;;;;;4999480;28;20180;-81
2023/12/22 02:59:43;;;;;;;5.67;2.27;;;;;;;;;;5000090;28;20512;-79
2023/12/22 03:02:09;;;;;;;10.40;2.30;;;;;;;;;;4999624;28;20887;-80
2023/12/22 03:04:35;;;;;;;15.00;3.07;;;;;;;;;;4999674;28;20399;-80
2023/12/22 03:07:01;;;;;;;8.93;2.67;;;;;;;;;;4999871;28;20418;-79
2023/12/22 03:09:27;;;;;;;9.13;2.83;;;;;;;;;;4999312;28;20722;-79
2023/12/22 03:11:54;;;;;;;7.30;2.40;;;;;;;;;;4999751;28;20897;-80
2023/12/22 03:14:20;;;;;;;13.75;2.67;;;;;;;;;;4998669;28;20781;-79
2023/12/22 03:16:46;;;;;;;10.95;2.17;;;;;;;;;;5000121;28;20184;-80
2023/12/22 03:19:12;;;;;;;15.50;4.07;;;;;;;;;;4999910;28;20188;-80
2023/12/22 03:21:38;;;;;;;15.23;2.53;;;;;;;;;;5000036;28;20215;-80
2023/12/22 03:24:04;;;;;;;12.47;2.43;;;;;;;;;;5000237;28;20409;-80
2023/12/22 03:26:30;;;;;;;6.65;2.15;;;;;;;;;;5000249;28;20405;-80
2023/12/22 03:28:56;;;;;;;15.20;2.80;;;;;;;;;;5000228;28;20539;-79
2023/12/22 03:31:22;;;;;;;9.63;2.33;;;;;;;;;;4999750;28;20415;-80
2023/12/22 03:33:48;;;;;;;8.68;1.85;;;;;;;;;;4999953;28;20415;-80
2023/12/22 03:36:14;;;;;;;11.10;2.87;;;;;;;;;;5001214;28;20177;-80
2023/12/22 03:38:40;;;;;;;12.63;2.67;;;;;;;;;;5000091;28;20420;-79
2023/12/22 03:41:06;;;;;;;14.60;3.00;;;;;;;;;;4999853;28;20558;-80
2023/12/22 03:43:32;;;;;;;14.30;2.85;;;;;;;;;;4998906;28;20411;-79
2023/12/22 03:45:58;;;;;;;4.43;1.42;;;;;;;;;;4999408;28;20183;-80
2023/12/22 03:48:24;;;;;;;4.73;1.40;;;;;;;;;;4999711;28;20187;-79
2023/12/22 03:50:50;;;;;;;7.77;2.13;;;;;;;;;;4998994;28;20431;-79
2023/12/22 03:53:16;;;;;;;8.30;1.87;;;;;;;;;;4998836;28;20910;-80
2023/12/22 03:55:42;;;;;;;6.72;1.80;;;;;;;;;;4999373;28;20408;-80
2023/12/22 03:58:08;;;;;;;7.47;1.25;;;;;;;;;;4998620;28;20632;-79
2023/12/22 04:00:35;;;;;;;6.85;1.52;;;;;;;;;;4998528;28;20243;-80
2023/12/22 04:03:01;;;;;;;3.40;1.48;;;;;;;;;;4998024;28;20207;-79
2023/12/22 04:05:27;;;;;;;6.65;1.80;;;;;;;;;;4997868;28;20208;-80
2023/12/22 04:07:53;;;;;;;10.48;1.92;;;;;;;;;;4996816;28;20199;-82
2023/12/22 04:10:19;;;;;;;4.50;1.20;;;;;;;;;;4998838;28;20237;-82
2023/12/22 04:12:45;;;;;;;5.78;1.70;;;;;;;;;;4997569;28;20545;-82
2023/12/22 04:15:12;;;;;;;10.73;1.85;;;;;;;;;;4998159;28;20184;-80
2023/12/22 04:17:38;;;;;;;6.43;1.90;;;;;;;;;;4997817;28;20176;-80
2023/12/22 04:20:05;;;;;;;6.33;2.50;;;;;;;;;;4998282;28;20216;-79
2023/12/22 04:22:31;;;;;;;8.98;1.90;;;;;;;;;;4998207;28;20464;-80
2023/12/22 04:24:57;;;;;;;5.57;1.80;;;;;;;;;;4997957;28;20738;-80
2023/12/22 04:27:23;;;;;;;13.90;2.30;;;;;;;;;;4997884;28;20211;-79
2023/12/22 04:29:49;;;;;;;10.05;2.00;;;;;;;;;;4997975;28;20541;-80
2023/12/22 04:32:15;;;;;;;4.72;1.63;;;;;;;;;;4997833;28;20199;-80
2023/12/22 04:34:41;;;;;;;6.80;1.87;;;;;;;;;;4997930;28;20182;-79
2023/12/22 04:37:07;;;;;;;12.20;2.20;;;;;;;;;;4997838;28;20406;-79
2023/12/22 04:39:32;;;;;;;15.83;3.70;;;;;;;;;;4997851;28;20469;-80
2023/12/22 04:41:58;;;;;;;5.33;1.60;;;;;;;;;;4997699;28;20409;-80
2023/12/22 04:44:25;;;;;;;10.00;2.47;;;;;;;;;;4997550;28;20768;-79
2023/12/22 04:46:51;;;;;;;9.02;2.20;;;;;;;;;;4997268;28;20470;-79
2023/12/22 04:49:18;;;;;;;9.35;2.03;;;;;;;;;;4998039;28;20187;-82
2023/12/22 04:51:44;;;;;;;6.75;2.10;;;;;;;;;;4997982;28;20765;-80
2023/12/22 04:54:10;;;;;;;10.37;2.63;;;;;;;;;;4996663;28;20208;-79
2023/12/22 04:56:36;;;;;;;4.43;1.42;;;;;;;;;;4997966;28;20819;-79
2023/12/22 04:59:02;;;;;;;8.50;2.38;;;;;;;;;;4998794;28;20209;-81
2023/12/22 05:01:28;;;;;;;14.63;2.22;;;;;;;;;;4996832;28;20229;-81
2023/12/22 05:03:54;;;;;;;3.50;1.20;;;;;;;;;;4998680;28;20215;-80
2023/12/22 05:06:20;;;;;;;8.57;2.30;;;;;;;;;;4997892;28;20909;-81
2023/12/22 05:08:46;;;;;;;11.38;2.15;;;;;;;;;;4998397;28;20879;-82
2023/12/22 05:11:12;;;;;;;6.65;1.65;;;;;;;;;;4998081;28;20203;-81
2023/12/22 05:13:40;;;;;;;8.13;2.13;;;;;;;;;;4998101;28;20211;-81
2023/12/22 05:16:06;;;;;;;8.27;2.72;;;;;;;;;;4996365;28;20177;-81
2023/12/22 05:18:32;;;;;;;12.45;2.45;;;;;;;;;;4997638;28;20647;-81
2023/12/22 05:20:58;;;;;;;12.27;2.42;;;;;;;;;;4997390;28;20251;-81
2023/12/22 05:23:24;;;;;;;11.33;2.47;;;;;;;;;;4997624;28;20197;-81
2023/12/22 05:25:50;;;;;;;7.80;2.40;;;;;;;;;;4997472;28;20409;-81
2023/12/22 05:28:17;;;;;;;11.00;2.33;;;;;;;;;;4996965;28;20422;-81
2023/12/22 05:30:43;;;;;;;7.40;2.40;;;;;;;;;;4998173;28;20187;-81
2023/12/22 05:33:09;;;;;;;13.37;2.70;;;;;;;;;;4998113;28;20422;-81
2023/12/22 05:35:34;;;;;;;13.55;3.20;;;;;;;;;;4997142;28;20494;-81
2023/12/22 05:38:00;;;;;;;10.10;3.23;;;;;;;;;;4998174;28;20268;-81
2023/12/22 05:40:26;;;;;;;5.90;2.10;;;;;;;;;;5000522;28;20570;-82
2023/12/22 05:42:52;;;;;;;13.53;3.50;;;;;;;;;;4998910;28;20432;-81
2023/12/22 05:45:18;;;;;;;9.27;1.70;;;;;;;;;;5000459;28;20407;-82
2023/12/22 05:47:44;;;;;;;10.07;2.77;;;;;;;;;;5000969;28;20407;-81
2023/12/22 05:50:10;;;;;;;10.90;3.03;;;;;;;;;;4998994;28;20422;-81
2023/12/22 05:52:36;;;;;;;11.32;2.67;;;;;;;;;;5000584;28;20427;-81
2023/12/22 05:55:02;;;;;;;8.05;2.45;;;;;;;;;;5000639;28;20352;-81
2023/12/22 05:57:28;;;;;;;12.32;3.55;;;;;;;;;;4999462;28;20297;-81
2023/12/22 05:59:54;;;;;;;5.03;1.73;;;;;;;;;;5000102;28;20774;-81
2023/12/22 06:02:21;;;;;;;6.23;2.40;;;;;;;;;;5000127;28;20471;-82
2023/12/22 06:04:47;;;;;;;14.00;2.75;;;;;;;;;;5000777;28;20883;-81
2023/12/22 06:07:12;;;;;;;11.87;2.70;;;;;;;;;;5000616;28;20187;-81
2023/12/22 06:09:39;;;;;;;7.23;1.93;;;;;;;;;;5000822;28;20490;-81
2023/12/22 06:12:05;;;;;;;6.45;1.92;;;;;;;;;;5000695;28;20407;-81
2023/12/22 06:14:32;;;;;;;30.33;3.15;;;;;;;;;;5001175;28;20214;-81
2023/12/22 06:16:58;;;;;;;11.77;2.50;;;;;;;;;;5000450;28;20249;-81
2023/12/22 06:19:28;;;;;;;16.52;2.80;;;;;;;;;;5000254;28;20184;-81
2023/12/22 06:21:54;;;;;;;11.32;2.38;;;;;;;;;;5001117;28;20200;-81
2023/12/22 06:24:20;;;;;;;14.07;2.97;;;;;;;;;;5000497;28;20586;-82
2023/12/22 06:26:46;;;;;;;10.60;2.80;;;;;;;;;;5001172;28;20213;-81
2023/12/22 06:29:12;;;;;;;7.27;2.60;;;;;;;;;;5000234;28;20814;-81
2023/12/22 06:31:38;;;;;;;8.57;2.90;;;;;;;;;;4999960;28;20813;-81
2023/12/22 06:34:05;;;;;;;5.07;2.10;;;;;;;;;;5000467;28;20497;-81
2023/12/22 06:36:30;;;;;;;9.77;1.75;;;;;;;;;;4999637;28;20422;-81
2023/12/22 06:38:57;;;;;;;5.03;1.13;;;;;;;;;;5000581;28;20266;-81
2023/12/22 06:41:26;;;;;;;7.53;2.30;;;;;;;;;;5000757;28;20476;-81
2023/12/22 06:43:52;;;;;;;5.63;2.72;;;;;;;;;;4999723;28;20628;-81
2023/12/22 06:46:19;;;;;;;14.10;3.30;;;;;;;;;;5000154;28;20279;-82
2023/12/22 06:48:45;;;;;;;10.98;2.00;;;;;;;;;;4998930;28;20410;-81
2023/12/22 06:51:19;;;;;;;3.55;1.10;;;;;;;;;;5000151;28;20186;-81
2023/12/22 06:53:45;;;;;;;5.10;1.58;;;;;;;;;;4999789;28;20181;-81
2023/12/22 06:56:21;;;;;;;4.32;1.30;;;;;;;;;;4999778;28;20187;-81
2023/12/22 06:58:48;;;;;;;5.07;1.60;;;;;;;;;;5000085;28;20167;-82
2023/12/22 07:01:20;;;;;;;8.82;2.88;;;;;;;;;;4997597;28;20249;-81
2023/12/22 07:03:46;;;;;;;5.78;1.52;;;;;;;;;;4999095;28;20184;-81
2023/12/22 07:06:12;;;;;;;6.93;1.83;;;;;;;;;;4999121;28;20178;-81
2023/12/22 07:08:38;;;;;;;17.63;3.00;;;;;;;;;;4998564;28;20270;-82
2023/12/22 07:11:04;;;;;;;8.32;2.30;;;;;;;;;;4999201;28;20430;-81
2023/12/22 07:13:30;;;;;;;7.30;2.53;;;;;;;;;;4999329;28;20184;-81
2023/12/22 07:15:56;;;;;;;7.00;2.97;;;;;;;;;;4998951;28;20407;-81
2023/12/22 07:18:22;;;;;;;10.97;2.63;;;;;;;;;;4998879;28;20459;-82
2023/12/22 07:20:48;;;;;;;5.40;2.73;;;;;;;;;;4998813;28;20474;-81
2023/12/22 07:23:14;;;;;;;12.57;2.87;;;;;;;;;;4997985;28;20418;-81
2023/12/22 07:25:40;;;;;;;12.77;2.80;;;;;;;;;;4997799;28;20443;-81
2023/12/22 07:28:06;;;;;;;14.47;3.70;;;;;;;;;;4998402;28;20410;-81
2023/12/22 07:30:32;;;;;;;12.85;3.47;;;;;;;;;;4998659;28;20434;-82
2023/12/22 07:32:58;;;;;;;24.70;5.00;;;;;;;;;;4997527;28;20177;-82
2023/12/22 07:35:24;;;;;;;19.40;4.97;;;;;;;;;;4998159;28;20411;-82
2023/12/22 07:37:50;;;;;;;10.20;2.80;;;;;;;;;;4998152;28;20414;-82
2023/12/22 07:40:16;;;;;;;14.20;4.40;;;;;;;;;;4998620;28;20494;-82
2023/12/22 07:42:42;;;;;;;16.92;3.90;;;;;;;;;;4998160;28;20420;-82
2023/12/22 07:45:09;;;;;;;21.63;4.30;;;;;;;;;;4998161;28;20205;-82
2023/12/22 07:47:36;;;;;;;22.95;5.00;;;;;;;;;;4997728;28;20461;-82
2023/12/22 07:50:02;;;;;;;17.85;4.07;;;;;;;;;;4998053;28;20188;-81
2023/12/22 07:52:28;;;;;;;24.13;4.70;;;;;;;;;;4997701;28;20309;-82
2023/12/22 07:54:54;;;;;;;17.45;3.53;;;;;;;;;;4997722;28;20450;-82
2023/12/22 07:57:20;;;;;;;20.80;4.93;;;;;;;;;;4997991;28;20652;-82
2023/12/22 07:59:46;;;;;;;24.83;5.05;;;;;;;;;;4997293;28;20422;-82
2023/12/22 08:02:12;;;;;;;20.23;4.40;;;;;;;;;;4997559;28;20189;-81
2023/12/22 08:04:38;;;;;;;24.30;4.80;;;;;;;;;;4996388;28;20414;-82
2023/12/22 08:07:04;;;;;;;19.17;4.57;;;;;;;;;;4998033;28;20426;-82
2023/12/22 08:09:29;;;;;;;29.10;5.03;;;;;;;;;;4998041;28;20470;-81
2023/12/22 08:11:56;;;;;;;30.33;4.97;;;;;;;;;;4997186;28;20269;-82
2023/12/22 08:14:22;;;;;;;18.63;4.30;;;;;;;;;;4997501;28;20433;-82
2023/12/22 08:16:49;;;;;;;26.92;5.47;;;;;;;;;;4996911;28;20179;-82
2023/12/22 08:19:15;;;;;;;23.75;4.35;;;;;;;;;;4997449;28;20542;-82
2023/12/22 08:21:43;;;;;;;27.87;7.53;;;;;;;;;;4997422;28;20208;-82
2023/12/22 08:24:11;;;;;;;15.10;4.03;;;;;;;;;;4996843;28;20411;-82
2023/12/22 08:26:37;;;;;;;25.13;5.07;;;;;;;;;;4996698;28;20226;-82
2023/12/22 08:29:03;;;;;;;17.20;4.83;;;;;;;;;;4997234;28;20185;-82
2023/12/22 08:31:28;;;;;;;27.10;6.00;;;;;;;;;;4997150;28;20418;-82
2023/12/22 08:33:54;;;;;;;13.03;4.00;;;;;;;;;;4996989;28;20901;-82
2023/12/22 08:36:20;;;;;;;12.03;3.27;;;;;;;;;;4996997;28;20430;-82
2023/12/22 08:38:46;;;;;;;21.57;5.03;;;;;;;;;;4996692;28;20407;-83
2023/12/22 08:41:14;;;;;;;21.87;4.37;;;;;;;;;;4996456;28;20469;-83
2023/12/22 08:43:40;;;;;;;28.02;6.03;;;;;;;;;;4996719;28;20415;-83
2023/12/22 08:46:06;;;;;;;22.20;4.50;;;;;;;;;;4996967;28;20182;-83
2023/12/22 08:48:32;;;;;;;16.80;4.30;;;;;;;;;;4996171;28;20461;-83
2023/12/22 08:50:58;;;;;;;16.30;4.70;;;;;;;;;;4997087;28;20788;-82
2023/12/22 08:53:25;;;;;;;21.70;4.20;;;;;;;;;;4996169;28;20277;-82
2023/12/22 08:55:51;;;;;;;16.70;4.00;;;;;;;;;;4995744;28;20437;-82
2023/12/22 08:58:17;;;;;;;17.23;4.07;;;;;;;;;;4996623;28;20187;-82
2023/12/22 09:00:44;;;;;;;15.80;4.20;;;;;;;;;;4996323;28;20829;-83
2023/12/22 09:03:10;;;;;;;24.75;6.85;;;;;;;;;;4996861;28;20537;-82
2023/12/22 09:05:36;;;;;;;26.35;4.55;;;;;;;;;;4996030;28;20186;-83
2023/12/22 09:08:02;;;;;;;18.43;5.57;;;;;;;;;;4996563;28;20190;-82
2023/12/22 09:10:27;;;;;;;15.32;4.40;;;;;;;;;;4996469;28;20482;-84
2023/12/22 09:12:53;;;;;;;15.90;4.20;;;;;;;;;;4999025;28;20183;-83
2023/12/22 09:15:19;;;;;;;22.10;4.80;;;;;;;;;;5000326;28;20454;-81
2023/12/22 09:17:45;;;;;;;12.00;2.60;;;;;;;;;;5000596;28;20897;-83
2023/12/22 09:20:12;;;;;;;17.30;4.53;;;;;;;;;;5000403;28;20886;-83
2023/12/22 09:22:38;;;;;;;14.98;4.15;;;;;;;;;;4999799;28;20454;-84
2023/12/22 09:25:04;;;;;;;13.23;4.30;;;;;;;;;;4998855;28;20553;-83
2023/12/22 09:27:30;;;;;;;11.93;4.18;;;;;;;;;;5000016;28;20420;-84
2023/12/22 09:29:56;;;;;;;12.02;3.90;;;;;;;;;;4998547;28;20185;-83
2023/12/22 09:32:22;;;;;;;12.63;3.65;;;;;;;;;;4999571;28;20183;-83
2023/12/22 09:34:49;;;;;;;13.50;3.83;;;;;;;;;;4999593;28;20250;-83
2023/12/22 09:37:15;;;;;;;12.70;3.15;;;;;;;;;;4999292;28;20918;-83
2023/12/22 09:39:41;;;;;;;10.73;3.40;;;;;;;;;;4999672;28;20179;-83
2023/12/22 09:42:07;;;;;;;15.40;3.53;;;;;;;;;;4998736;28;20398;-80
2023/12/22 09:44:33;;;;;;;13.43;3.20;;;;;;;;;;4997696;28;20950;-84
2023/12/22 09:47:00;;;;;;;10.98;3.47;;;;;;;;;;4998337;28;20187;-82
2023/12/22 09:49:27;;;;;;;10.57;2.92;;;;;;;;;;4999546;28;20219;-83
2023/12/22 09:51:54;;;;;;;14.75;2.92;;;;;;;;;;4999423;28;20194;-82
2023/12/22 09:54:20;;;;;;;6.82;2.50;;;;;;;;;;4999550;28;20217;-82
2023/12/22 09:56:47;;;;;;;20.25;2.90;;;;;;;;;;4999839;28;20182;-82
2023/12/22 09:59:13;;;;;;;11.60;2.35;;;;;;;;;;4998929;28;20658;-82
2023/12/22 10:01:45;;;;;;;17.15;3.45;;;;;;;;;;4999409;28;20578;-83
2023/12/22 10:04:11;;;;;;;5.38;2.20;;;;;;;;;;4999437;28;20204;-83
2023/12/22 10:06:37;;;;;;;7.35;3.28;;;;;;;;;;4998208;28;20214;-83
2023/12/22 10:09:06;;;;;;;8.10;2.35;;;;;;;;;;4997564;28;20238;-81
2023/12/22 10:11:33;;;;;;;4.32;1.50;;;;;;;;;;4998454;28;20192;-83
2023/12/22 10:14:00;;;;;;;7.82;1.80;;;;;;;;;;4998437;28;20305;-82
2023/12/22 10:16:27;;;;;;;5.25;1.90;;;;;;;;;;4998812;28;20194;-82
2023/12/22 10:18:53;;;;;;;5.20;2.55;;;;;;;;;;4998761;28;20310;-82
2023/12/22 10:21:19;;;;;;;7.30;1.95;;;;;;;;;;4999263;28;20239;-82
2023/12/22 10:23:45;;;;;;;6.10;2.03;;;;;;;;;;4997778;28;20191;-82
2023/12/22 10:26:12;;;;;;;5.47;2.23;;;;;;;;;;4998690;28;20854;-82
2023/12/22 10:28:37;;;;;;;4.32;1.90;;;;;;;;;;4998097;28;20407;-83
2023/12/22 10:31:06;;;;;;;11.23;3.43;;;;;;;;;;4999190;28;20230;-82
2023/12/22 10:33:32;;;;;;;11.80;3.10;;;;;;;;;;4999946;28;20406;-82
2023/12/22 10:35:59;;;;;;;7.63;3.28;;;;;;;;;;4998856;28;20533;-82
2023/12/22 10:38:25;;;;;;;3.15;2.22;;;;;;;;;;4999135;28;20671;-82
2023/12/22 10:40:51;;;;;;;4.55;2.40;;;;;;;;;;4998811;28;20310;-82
2023/12/22 10:43:17;;;;;;;7.90;2.77;;;;;;;;;;4998119;28;20288;-83
2023/12/22 10:45:43;;;;;;;6.83;2.87;;;;;;;;;;4997787;28;20411;-83
2023/12/22 10:48:10;;;;;;;6.20;2.77;;;;;;;;;;4997869;28;20407;-83
2023/12/22 10:50:36;;;;;;;3.17;2.10;;;;;;;;;;4998197;28;20521;-83
2023/12/22 10:53:06;;;;;;;2.67;1.57;;;;;;;;;;4998515;28;20258;-83
2023/12/22 10:55:32;;;;;;;3.33;1.95;;;;;;;;;;4998070;28;20402;-82
2023/12/22 10:58:02;;;;;;;3.53;1.63;;;;;;;;;;4997773;28;20183;-84
2023/12/22 11:00:28;;;;;;;4.25;2.05;;;;;;;;;;4997756;28;20497;-84
2023/12/22 11:02:59;;;;;;;4.18;1.75;;;;;;;;;;4996848;28;20590;-84
2023/12/22 11:05:27;;;;;;;5.03;2.10;;;;;;;;;;4998486;28;20215;-83
2023/12/22 11:07:54;;;;;;;3.10;2.00;;;;;;;;;;4997916;28;20180;-83
2023/12/22 11:10:21;;;;;;;2.92;1.70;;;;;;;;;;4996482;28;20293;-83
2023/12/22 11:12:48;;;;;;;6.20;2.47;;;;;;;;;;4997324;28;20186;-83
2023/12/22 11:15:14;;;;;;;2.75;2.22;;;;;;;;;;4997758;28;20198;-84
2023/12/22 11:17:42;;;;;;;7.15;2.55;;;;;;;;;;4997772;28;20186;-84
2023/12/22 11:20:12;;;;;;;2.35;1.63;;;;;;;;;;4997920;28;20251;-84
2023/12/22 11:22:39;;;;;;;3.55;2.17;;;;;;;;;;4997179;28;20180;-85
2023/12/22 11:25:06;;;;;;;3.60;2.40;;;;;;;;;;4998008;28;20273;-84
2023/12/22 11:27:33;;;;;;;2.72;1.83;;;;;;;;;;4997308;28;20190;-85
2023/12/22 11:30:01;;;;;;;5.22;2.13;;;;;;;;;;4997322;28;20621;-83
2023/12/22 11:32:29;;;;;;;4.45;2.50;;;;;;;;;;4997574;28;20172;-82
2023/12/22 11:34:57;;;;;;;1.63;1.52;;;;;;;;;;4997474;28;20182;-82
2023/12/22 11:37:23;;;;;;;3.53;2.13;;;;;;;;;;4998375;28;20534;-82
2023/12/22 11:39:49;;;;;;;4.00;1.63;;;;;;;;;;4997569;28;20224;-83
2023/12/22 11:42:45;;;;;;;4.20;1.60;;;;;;;;;;4996377;28;20418;-82
2023/12/22 11:45:12;;;;;;;5.25;2.10;;;;;;;;;;4985428;28;20531;-80
2023/12/22 11:47:38;;;;;;;3.45;1.60;;;;;;;;;;4997555;28;20187;-82
2023/12/22 11:50:04;;;;;;;2.67;1.60;;;;;;;;;;4997520;28;20282;-82
2023/12/22 11:52:31;;;;;;;2.35;2.00;;;;;;;;;;4997761;28;20187;-81
2023/12/22 11:54:58;;;;;;;4.00;2.25;;;;;;;;;;4997677;28;20345;-81
2023/12/22 11:57:40;;;;;;;3.08;1.90;;;;;;;;;;4997257;28;20640;-83
2023/12/22 12:00:11;;;;;;;2.80;1.92;;;;;;;;;;4996155;28;20338;-81
2023/12/22 12:02:39;;;;;;;1.92;1.70;;;;;;;;;;4997484;28;20194;-88
2023/12/22 12:05:07;;;;;;;5.38;1.83;;;;;;;;;;4996853;28;20175;-83
2023/12/22 12:07:39;;;;;;;3.78;2.20;;;;;;;;;;4996939;28;20637;-83
2023/12/22 12:10:06;;;;;;;3.85;1.90;;;;;;;;;;4997367;28;20241;-84
2023/12/22 12:12:34;;;;;;;1.98;1.20;;;;;;;;;;4996792;28;20716;-82
2023/12/22 12:15:02;;;;;;;2.47;2.03;;;;;;;;;;4995914;28;20230;-83
2023/12/22 12:17:29;;;;;;;4.00;2.00;;;;;;;;;;4997215;28;20187;-83
2023/12/22 12:19:56;;;;;;;4.38;1.80;;;;;;;;;;4996629;28;20274;-83
2023/12/22 12:22:24;;;;;;;1.42;1.20;;;;;;;;;;4996909;28;20664;-83
2023/12/22 12:24:50;;;;;;;2.13;1.52;;;;;;;;;;4996435;28;20190;-83
2023/12/22 12:27:20;;;;;;;4.97;1.50;;;;;;;;;;4997235;28;20175;-83
2023/12/22 12:29:46;;;;;;;2.42;1.58;;;;;;;;;;4996186;28;20175;-83
2023/12/22 12:32:15;;;;;;;2.45;1.10;;;;;;;;;;4997154;28;20179;-84
2023/12/22 12:34:43;;;;;;;2.05;1.50;;;;;;;;;;4996652;28;20180;-83
2023/12/22 12:37:09;;;;;;;2.90;1.80;;;;;;;;;;4997206;28;20183;-82
2023/12/22 12:39:36;;;;;;;4.75;1.83;;;;;;;;;;4996773;28;20592;-82
2023/12/22 12:42:05;;;;;;;4.57;1.25;;;;;;;;;;4996455;28;20231;-83
2023/12/22 12:44:32;;;;;;;3.50;1.55;;;;;;;;;;4995225;28;20183;-83
2023/12/22 12:46:58;;;;;;;2.50;1.55;;;;;;;;;;4997396;28;20565;-82
2023/12/22 12:49:27;;;;;;;12.57;1.63;;;;;;;;;;5001179;28;20203;-81
2023/12/22 12:51:53;;;;;;;2.78;1.40;;;;;;;;;;5000872;28;20643;-82
2023/12/22 12:54:20;;;;;;;4.40;1.30;;;;;;;;;;5001294;28;20182;-82
2023/12/22 12:56:46;;;;;;;2.38;1.38;;;;;;;;;;5000447;28;20183;-82
2023/12/22 12:59:13;;;;;;;2.88;1.10;;;;;;;;;;5000283;28;20206;-84
2023/12/22 13:01:40;;;;;;;5.05;1.45;;;;;;;;;;5000778;28;20554;-81
2023/12/22 13:04:06;;;;;;;1.20;1.00;;;;;;;;;;5001191;28;20213;-81
2023/12/22 13:06:33;;;;;;;1.80;1.08;;;;;;;;;;5001361;28;20186;-81
2023/12/22 13:08:59;;;;;;;1.95;0.93;;;;;;;;;;4983319;28;20231;-81
2023/12/22 13:11:26;;;;;;;5.27;1.27;;;;;;;;;;5000966;28;20710;-82
2023/12/22 13:13:52;;;;;;;2.13;1.48;;;;;;;;;;5000305;28;20506;-80
2023/12/22 13:16:22;;;;;;;5.05;1.95;;;;;;;;;;5000527;28;20192;-83
2023/12/22 13:18:49;;;;;;;2.90;1.73;;;;;;;;;;4999342;28;20184;-80
2023/12/22 13:21:15;;;;;;;3.85;1.60;;;;;;;;;;5000571;28;20555;-80
2023/12/22 13:23:41;;;;;;;2.42;1.70;;;;;;;;;;5001247;28;20192;-80
2023/12/22 13:26:18;;;;;;;2.53;1.92;;;;;;;;;;5000680;28;20179;-80
2023/12/22 13:28:43;;;;;;;3.42;2.00;;;;;;;;;;5000509;28;20251;-82
2023/12/22 13:31:18;;;;;;;5.57;2.10;;;;;;;;;;5000852;28;20215;-80
2023/12/22 13:33:44;;;;;;;3.20;1.95;;;;;;;;;;5000201;28;20399;-84
2023/12/22 13:36:10;;;;;;;4.82;1.52;;;;;;;;;;5001123;28;20254;-81
2023/12/22 13:38:36;;;;;;;6.72;2.25;;;;;;;;;;4999201;28;20179;-81
2023/12/22 13:41:08;;;;;;;3.60;1.48;;;;;;;;;;4999303;28;20219;-82
2023/12/22 13:43:34;;;;;;;5.35;1.35;;;;;;;;;;4999707;28;20168;-82
2023/12/22 13:46:00;;;;;;;5.23;1.50;;;;;;;;;;4999308;28;20662;-83
2023/12/22 13:48:26;;;;;;;3.93;1.40;;;;;;;;;;4999344;28;20407;-82
2023/12/22 13:50:58;;;;;;;3.55;1.98;;;;;;;;;;4999027;28;20426;-82
2023/12/22 13:53:24;;;;;;;4.13;1.70;;;;;;;;;;4998571;28;20640;-83
2023/12/22 13:55:57;;;;;;;8.02;1.48;;;;;;;;;;4998722;28;20180;-83
2023/12/22 13:58:23;;;;;;;1.95;1.35;;;;;;;;;;4999209;28;20618;-82
2023/12/22 14:00:49;;;;;;;2.75;1.75;;;;;;;;;;4998828;28;20212;-85
2023/12/22 14:03:21;;;;;;;3.72;1.75;;;;;;;;;;4998891;28;20246;-82
2023/12/22 14:05:50;;;;;;;5.55;2.13;;;;;;;;;;4998875;28;20249;-82
2023/12/22 14:08:17;;;;;;;5.30;2.35;;;;;;;;;;4999476;28;20172;-81
2023/12/22 14:10:47;;;;;;;3.22;1.48;;;;;;;;;;4999920;28;20227;-81
2023/12/22 14:13:13;;;;;;;3.58;1.20;;;;;;;;;;4997633;28;20179;-82
2023/12/22 14:15:39;;;;;;;8.00;1.80;;;;;;;;;;4998785;28;20192;-82
2023/12/22 14:18:05;;;;;;;2.43;1.37;;;;;;;;;;4999038;28;20243;-81
2023/12/22 14:20:31;;;;;;;6.03;1.13;;;;;;;;;;4998812;28;20504;-82
2023/12/22 14:22:57;;;;;;;5.20;2.00;;;;;;;;;;4998945;28;20187;-83
2023/12/22 14:25:25;;;;;;;3.43;1.70;;;;;;;;;;4998641;28;20950;-82
2023/12/22 14:27:52;;;;;;;4.45;1.73;;;;;;;;;;4998519;28;20421;-83
2023/12/22 14:30:18;;;;;;;4.70;1.42;;;;;;;;;;4999010;28;20196;-82
2023/12/22 14:32:44;;;;;;;12.47;2.13;;;;;;;;;;4997276;28;20186;-82
2023/12/22 14:35:11;;;;;;;3.20;1.67;;;;;;;;;;4998043;28;20402;-82